createdAt,value
2023-05-04T00:00:21.142Z,11.03
2023-05-04T00:01:22.654Z,11.01
2023-05-04T00:02:24.261Z,10.95
2023-05-04T00:03:25.954Z,10.87
2023-05-04T00:04:30.582Z,10.86
2023-05-04T00:05:32.996Z,10.87
2023-05-04T00:06:34.806Z,10.87
2023-05-04T00:07:36.518Z,10.85
2023-05-04T00:08:37.983Z,10.83
2023-05-04T00:09:39.659Z,10.84
2023-05-04T00:10:41.162Z,10.85
2023-05-04T00:11:42.611Z,10.84
2023-05-04T00:12:46.181Z,10.79
2023-05-04T00:13:47.666Z,10.78
2023-05-04T00:14:49.116Z,10.76
2023-05-04T00:15:50.612Z,10.74
2023-05-04T00:16:52.661Z,10.71
2023-05-04T00:17:55.069Z,10.71
2023-05-04T00:18:56.658Z,10.70
2023-05-04T00:19:58.361Z,10.71
2023-05-04T00:20:59.842Z,10.68
2023-05-04T00:22:01.821Z,10.65
2023-05-04T00:23:03.319Z,10.62
2023-05-04T00:24:05.223Z,10.58
2023-05-04T00:25:07.468Z,10.57
2023-05-04T00:26:10.179Z,10.50
2023-05-04T00:27:11.760Z,10.47
2023-05-04T00:28:13.377Z,10.45
2023-05-04T00:29:14.867Z,10.40
2023-05-04T00:30:16.584Z,10.40
2023-05-04T00:31:19.304Z,10.39
2023-05-04T00:32:21.373Z,10.38
2023-05-04T00:33:22.873Z,10.34
2023-05-04T00:34:29.116Z,10.33
2023-05-04T00:35:31.903Z,10.34
2023-05-04T00:36:42.369Z,10.29
2023-05-04T00:37:46.166Z,10.27
2023-05-04T00:38:56.284Z,10.28
2023-05-04T00:40:23.847Z,10.25
2023-05-04T00:41:28.672Z,10.22
2023-05-04T00:42:31.734Z,10.19
2023-05-04T00:43:33.186Z,10.19
2023-05-04T00:44:35.298Z,10.13
2023-05-04T00:45:38.007Z,10.10
2023-05-04T00:46:39.535Z,10.10
2023-05-04T00:47:42.073Z,10.12
2023-05-04T00:48:46.941Z,10.11
2023-05-04T00:49:48.675Z,10.10
2023-05-04T00:50:53.446Z,10.10
2023-05-04T00:51:57.124Z,10.10
2023-05-04T00:53:01.463Z,10.05
2023-05-04T00:54:03.080Z,10.00
2023-05-04T00:55:04.877Z,10.01
2023-05-04T00:56:07.985Z,10.04
2023-05-04T00:57:09.486Z,10.03
2023-05-04T00:58:11.522Z,10.04
2023-05-04T00:59:13.979Z,10.05
2023-05-04T01:00:15.834Z,10.00
2023-05-04T01:01:17.332Z,9.98
2023-05-04T01:02:20.313Z,9.97
2023-05-04T01:03:21.810Z,9.93
2023-05-04T01:04:23.464Z,9.88
2023-05-04T01:05:31.805Z,9.85
2023-05-04T01:06:39.074Z,9.78
2023-05-04T01:08:15.969Z,9.74
2023-05-04T01:09:33.979Z,9.73
2023-05-04T01:11:00.725Z,9.66
2023-05-04T01:12:26.811Z,9.63
2023-05-04T01:13:28.355Z,9.55
2023-05-04T01:14:30.913Z,9.57
2023-05-04T01:15:33.011Z,9.41
2023-05-04T01:16:34.541Z,9.39
2023-05-04T01:17:36.509Z,9.33
2023-05-04T01:18:38.085Z,9.30
2023-05-04T01:19:39.570Z,9.22
2023-05-04T01:20:41.380Z,9.19
2023-05-04T01:21:42.827Z,9.20
2023-05-04T01:22:44.895Z,9.17
2023-05-04T01:23:46.490Z,9.14
2023-05-04T01:24:48.134Z,9.20
2023-05-04T01:25:59.032Z,9.22
2023-05-04T01:27:11.491Z,9.23
2023-05-04T01:28:20.336Z,9.27
2023-05-04T01:29:30.086Z,9.26
2023-05-04T01:30:43.491Z,9.24
2023-05-04T01:31:46.579Z,9.21
2023-05-04T01:32:50.219Z,9.22
2023-05-04T01:33:56.150Z,9.20
2023-05-04T01:34:58.536Z,9.19
2023-05-04T01:36:00.422Z,9.18
2023-05-04T01:37:02.282Z,9.17
2023-05-04T01:38:04.161Z,9.20
2023-05-04T01:39:05.847Z,9.20
2023-05-04T01:40:08.132Z,9.19
2023-05-04T01:41:09.925Z,9.20
2023-05-04T01:42:11.384Z,9.22
2023-05-04T01:43:12.853Z,9.24
2023-05-04T01:44:14.333Z,9.23
2023-05-04T01:45:15.976Z,9.19
2023-05-04T01:46:17.809Z,9.19
2023-05-04T01:47:19.320Z,9.16
2023-05-04T01:48:20.965Z,9.14
2023-05-04T01:49:22.449Z,9.16
2023-05-04T01:50:23.999Z,9.15
2023-05-04T01:51:25.822Z,9.12
2023-05-04T01:52:27.317Z,9.14
2023-05-04T01:53:28.809Z,9.13
2023-05-04T01:54:30.356Z,9.13
2023-05-04T01:55:31.894Z,9.17
2023-05-04T01:56:33.712Z,9.17
2023-05-04T01:57:35.255Z,9.13
2023-05-04T01:58:37.038Z,9.09
2023-05-04T01:59:38.478Z,9.10
2023-05-04T02:00:39.934Z,9.02
2023-05-04T02:01:42.176Z,8.97
2023-05-04T02:02:44.098Z,8.97
2023-05-04T02:03:45.873Z,8.95
2023-05-04T02:04:47.511Z,8.94
2023-05-04T02:05:49.135Z,8.94
2023-05-04T02:06:50.996Z,8.87
2023-05-04T02:07:52.675Z,8.87
2023-05-04T02:08:54.184Z,8.88
2023-05-04T02:09:55.641Z,8.90
2023-05-04T02:10:57.138Z,8.87
2023-05-04T02:11:59.099Z,8.88
2023-05-04T02:13:00.655Z,8.87
2023-05-04T02:14:02.227Z,8.84
2023-05-04T02:15:04.042Z,8.87
2023-05-04T02:16:06.128Z,8.79
2023-05-04T02:17:08.341Z,8.80
2023-05-04T02:18:09.915Z,8.66
2023-05-04T02:19:11.354Z,8.59
2023-05-04T02:20:13.185Z,8.58
2023-05-04T02:21:14.645Z,8.56
2023-05-04T02:22:16.534Z,8.48
2023-05-04T02:23:17.999Z,8.52
2023-05-04T02:24:19.492Z,8.49
2023-05-04T02:25:20.985Z,8.51
2023-05-04T02:26:22.508Z,8.54
2023-05-04T02:27:23.981Z,8.59
2023-05-04T02:28:25.464Z,8.60
2023-05-04T02:29:26.966Z,8.61
2023-05-04T02:30:28.725Z,8.62
2023-05-04T02:31:30.606Z,8.59
2023-05-04T02:32:32.147Z,8.63
2023-05-04T02:33:33.698Z,8.59
2023-05-04T02:34:35.486Z,8.57
2023-05-04T02:35:36.942Z,8.60
2023-05-04T02:36:38.736Z,8.60
2023-05-04T02:37:40.248Z,8.49
2023-05-04T02:38:41.922Z,8.43
2023-05-04T02:39:43.416Z,8.31
2023-05-04T02:40:45.027Z,8.32
2023-05-04T02:41:47.250Z,8.32
2023-05-04T02:42:49.014Z,8.31
2023-05-04T02:43:51.061Z,8.35
2023-05-04T02:44:52.480Z,8.38
2023-05-04T02:45:54.087Z,8.41
2023-05-04T02:46:55.531Z,8.32
2023-05-04T02:47:57.345Z,8.30
2023-05-04T02:48:58.882Z,8.33
2023-05-04T02:50:00.332Z,8.31
2023-05-04T02:51:02.956Z,8.35
2023-05-04T02:52:04.648Z,8.32
2023-05-04T02:53:06.146Z,8.33
2023-05-04T02:54:08.428Z,8.32
2023-05-04T02:55:10.100Z,8.33
2023-05-04T02:56:11.975Z,8.33
2023-05-04T02:57:13.465Z,8.29
2023-05-04T02:58:14.902Z,8.26
2023-05-04T02:59:16.492Z,8.23
2023-05-04T03:00:18.200Z,8.22
2023-05-04T03:01:19.674Z,8.23
2023-05-04T03:02:21.211Z,8.24
2023-05-04T03:03:22.812Z,8.25
2023-05-04T03:04:24.420Z,8.23
2023-05-04T03:05:25.910Z,8.23
2023-05-04T03:06:27.805Z,8.19
2023-05-04T03:07:29.362Z,8.16
2023-05-04T03:08:30.981Z,8.15
2023-05-04T03:09:32.450Z,8.12
2023-05-04T03:10:33.940Z,8.11
2023-05-04T03:11:35.522Z,8.11
2023-05-04T03:12:37.064Z,8.00
2023-05-04T03:13:38.668Z,7.98
2023-05-04T03:14:40.294Z,8.03
2023-05-04T03:15:41.999Z,7.99
2023-05-04T03:16:43.498Z,7.94
2023-05-04T03:17:45.029Z,7.90
2023-05-04T03:18:46.528Z,7.94
2023-05-04T03:19:47.961Z,7.99
2023-05-04T03:20:49.400Z,8.01
2023-05-04T03:21:50.853Z,7.98
2023-05-04T03:22:52.309Z,7.99
2023-05-04T03:23:53.761Z,8.00
2023-05-04T03:24:55.264Z,7.95
2023-05-04T03:25:56.711Z,7.89
2023-05-04T03:26:58.191Z,7.74
2023-05-04T03:27:59.646Z,7.72
2023-05-04T03:29:01.085Z,7.65
2023-05-04T03:30:02.836Z,7.68
2023-05-04T03:31:04.566Z,7.60
2023-05-04T03:32:06.885Z,7.68
2023-05-04T03:33:08.638Z,7.71
2023-05-04T03:34:12.482Z,7.60
2023-05-04T03:35:14.245Z,7.57
2023-05-04T03:36:15.846Z,7.49
2023-05-04T03:37:17.495Z,7.54
2023-05-04T03:38:18.914Z,7.61
2023-05-04T03:39:20.566Z,7.63
2023-05-04T03:40:24.088Z,7.64
2023-05-04T03:41:25.596Z,7.67
2023-05-04T03:42:27.336Z,7.60
2023-05-04T03:43:28.819Z,7.61
2023-05-04T03:44:30.296Z,7.56
2023-05-04T03:45:31.800Z,7.46
2023-05-04T03:46:33.290Z,7.34
2023-05-04T03:47:34.829Z,7.47
2023-05-04T03:48:36.302Z,7.42
2023-05-04T03:49:37.794Z,7.41
2023-05-04T03:50:39.313Z,7.46
2023-05-04T03:51:40.725Z,7.46
2023-05-04T03:52:42.205Z,7.49
2023-05-04T03:53:44.999Z,7.54
2023-05-04T03:54:46.568Z,7.56
2023-05-04T03:55:48.183Z,7.55
2023-05-04T03:56:49.677Z,7.54
2023-05-04T03:57:51.516Z,7.61
2023-05-04T03:58:52.985Z,7.51
2023-05-04T03:59:57.067Z,7.52
2023-05-04T04:00:59.229Z,7.55
2023-05-04T04:02:01.247Z,7.50
2023-05-04T04:03:03.259Z,7.54
2023-05-04T04:04:05.083Z,7.57
2023-05-04T04:05:07.406Z,7.55
2023-05-04T04:06:09.823Z,7.56
2023-05-04T04:07:11.294Z,7.54
2023-05-04T04:08:14.348Z,7.54
2023-05-04T04:09:16.058Z,7.48
2023-05-04T04:10:17.965Z,7.44
2023-05-04T04:11:19.494Z,7.52
2023-05-04T04:12:21.133Z,7.45
2023-05-04T04:13:22.653Z,7.42
2023-05-04T04:14:24.229Z,7.50
2023-05-04T04:15:25.729Z,7.51
2023-05-04T04:16:27.795Z,7.53
2023-05-04T04:17:29.296Z,7.52
2023-05-04T04:18:30.725Z,7.46
2023-05-04T04:19:32.195Z,7.46
2023-05-04T04:20:33.714Z,7.51
2023-05-04T04:21:35.443Z,7.58
2023-05-04T04:22:36.930Z,7.66
2023-05-04T04:23:38.948Z,7.68
2023-05-04T04:24:40.486Z,7.64
2023-05-04T04:25:44.109Z,7.69
2023-05-04T04:26:46.127Z,7.69
2023-05-04T04:27:47.597Z,7.74
2023-05-04T04:28:51.029Z,7.72
2023-05-04T04:29:52.694Z,7.73
2023-05-04T04:30:54.540Z,7.76
2023-05-04T04:31:56.207Z,7.78
2023-05-04T04:32:57.769Z,7.69
2023-05-04T04:33:59.425Z,7.68
2023-05-04T04:35:01.147Z,7.61
2023-05-04T04:36:03.140Z,7.62
2023-05-04T04:37:04.733Z,7.72
2023-05-04T04:38:07.016Z,7.77
2023-05-04T04:39:08.573Z,7.81
2023-05-04T04:40:10.455Z,7.72
2023-05-04T04:41:12.376Z,7.77
2023-05-04T04:42:13.934Z,7.77
2023-05-04T04:43:15.465Z,7.77
2023-05-04T04:44:16.914Z,7.82
2023-05-04T04:45:20.454Z,7.86
2023-05-04T04:46:22.421Z,7.83
2023-05-04T04:47:24.061Z,7.88
2023-05-04T04:48:25.904Z,7.93
2023-05-04T04:49:27.486Z,7.98
2023-05-04T04:50:29.576Z,8.03
2023-05-04T04:51:31.138Z,7.98
2023-05-04T04:52:33.514Z,8.05
2023-05-04T04:53:34.994Z,8.11
2023-05-04T04:54:36.437Z,8.15
2023-05-04T04:55:37.922Z,8.18
2023-05-04T04:56:40.577Z,8.21
2023-05-04T04:57:42.121Z,8.25
2023-05-04T04:58:43.578Z,8.30
2023-05-04T04:59:46.311Z,8.37
2023-05-04T05:00:48.278Z,8.39
2023-05-04T05:01:49.865Z,8.44
2023-05-04T05:02:51.436Z,8.47
2023-05-04T05:03:53.015Z,8.46
2023-05-04T05:04:54.733Z,8.48
2023-05-04T05:05:56.302Z,8.55
2023-05-04T05:06:59.081Z,8.57
2023-05-04T05:08:00.562Z,8.65
2023-05-04T05:09:02.112Z,8.64
2023-05-04T05:10:04.046Z,8.59
2023-05-04T05:11:06.100Z,8.65
2023-05-04T05:12:07.583Z,8.71
2023-05-04T05:13:09.327Z,8.62
2023-05-04T05:14:10.918Z,8.62
2023-05-04T05:15:12.771Z,8.71
2023-05-04T05:16:14.281Z,8.72
2023-05-04T05:17:15.817Z,8.79
2023-05-04T05:18:17.306Z,8.82
2023-05-04T05:19:19.121Z,8.84
2023-05-04T05:20:21.352Z,8.87
2023-05-04T05:21:22.834Z,8.91
2023-05-04T05:22:24.310Z,9.02
2023-05-04T05:23:25.828Z,9.07
2023-05-04T05:24:27.304Z,9.08
2023-05-04T05:25:28.879Z,9.13
2023-05-04T05:26:30.570Z,9.17
2023-05-04T05:27:33.739Z,9.26
2023-05-04T05:28:35.270Z,9.33
2023-05-04T05:29:37.281Z,9.39
2023-05-04T05:30:39.166Z,9.42
2023-05-04T05:31:41.240Z,9.47
2023-05-04T05:32:42.938Z,9.49
2023-05-04T05:33:44.523Z,9.57
2023-05-04T05:34:46.001Z,9.62
2023-05-04T05:35:47.551Z,9.65
2023-05-04T05:36:49.095Z,9.73
2023-05-04T05:37:50.589Z,9.83
2023-05-04T05:38:52.783Z,9.87
2023-05-04T05:39:54.280Z,9.94
2023-05-04T05:40:55.729Z,9.98
2023-05-04T05:41:58.310Z,10.01
2023-05-04T05:42:59.845Z,10.08
2023-05-04T05:44:01.310Z,10.14
2023-05-04T05:45:04.802Z,10.19
2023-05-04T05:46:06.726Z,10.22
2023-05-04T05:47:08.389Z,10.29
2023-05-04T05:48:10.550Z,10.35
2023-05-04T05:49:12.074Z,10.39
2023-05-04T05:50:14.314Z,10.43
2023-05-04T05:51:15.805Z,10.48
2023-05-04T05:52:17.788Z,10.48
2023-05-04T05:53:19.243Z,10.54
2023-05-04T05:54:22.964Z,10.62
2023-05-04T05:55:24.748Z,10.67
2023-05-04T05:56:26.219Z,10.71
2023-05-04T05:57:27.646Z,10.78
2023-05-04T05:58:29.311Z,10.85
2023-05-04T05:59:30.802Z,10.90
2023-05-04T06:00:32.288Z,10.95
2023-05-04T06:01:33.823Z,11.00
2023-05-04T06:02:35.404Z,11.04
2023-05-04T06:03:37.003Z,11.09
2023-05-04T06:04:38.611Z,11.15
2023-05-04T06:05:40.648Z,11.19
2023-05-04T06:06:44.342Z,11.26
2023-05-04T06:07:47.290Z,11.31
2023-05-04T06:08:48.831Z,11.34
2023-05-04T06:09:50.671Z,11.38
2023-05-04T06:10:52.763Z,11.43
2023-05-04T06:11:55.568Z,11.50
2023-05-04T06:12:57.249Z,11.54
2023-05-04T06:13:58.888Z,11.59
2023-05-04T06:15:00.991Z,11.63
2023-05-04T06:16:02.887Z,11.64
2023-05-04T06:17:04.490Z,11.68
2023-05-04T06:18:06.060Z,11.71
2023-05-04T06:19:07.794Z,11.75
2023-05-04T06:20:09.842Z,11.78
2023-05-04T06:21:11.800Z,11.82
2023-05-04T06:22:13.597Z,11.89
2023-05-04T06:23:15.745Z,11.93
2023-05-04T06:24:17.268Z,11.97
2023-05-04T06:25:18.824Z,12.03
2023-05-04T06:26:20.325Z,12.12
2023-05-04T06:27:23.657Z,12.19
2023-05-04T06:28:25.698Z,12.26
2023-05-04T06:29:27.266Z,12.32
2023-05-04T06:30:28.979Z,12.37
2023-05-04T06:31:30.636Z,12.44
2023-05-04T06:32:32.358Z,12.47
2023-05-04T06:33:34.217Z,12.50
2023-05-04T06:34:36.061Z,12.46
2023-05-04T06:35:37.619Z,12.52
2023-05-04T06:36:39.339Z,12.62
2023-05-04T06:37:41.720Z,12.71
2023-05-04T06:38:43.230Z,12.82
2023-05-04T06:39:45.081Z,12.92
2023-05-04T06:40:47.066Z,13.02
2023-05-04T06:41:48.808Z,13.08
2023-05-04T06:42:50.372Z,13.17
2023-05-04T06:43:52.325Z,13.24
2023-05-04T06:44:57.807Z,13.31
2023-05-04T06:46:03.600Z,13.39
2023-05-04T06:47:05.624Z,13.45
2023-05-04T06:48:08.969Z,13.48
2023-05-04T06:49:10.900Z,13.50
2023-05-04T06:50:12.910Z,13.51
2023-05-04T06:51:14.581Z,13.53
2023-05-04T06:52:16.117Z,13.60
2023-05-04T06:53:17.608Z,13.66
2023-05-04T06:54:19.073Z,13.71
2023-05-04T06:55:20.668Z,13.80
2023-05-04T06:56:22.844Z,13.80
2023-05-04T06:57:24.380Z,13.86
2023-05-04T06:58:26.195Z,13.93
2023-05-04T06:59:27.753Z,14.03
2023-05-04T07:00:29.509Z,14.13
2023-05-04T07:01:31.415Z,14.17
2023-05-04T07:02:33.046Z,14.23
2023-05-04T07:03:35.046Z,14.33
2023-05-04T07:04:37.501Z,14.45
2023-05-04T07:05:39.106Z,14.49
2023-05-04T07:06:40.795Z,14.50
2023-05-04T07:07:42.464Z,14.58
2023-05-04T07:08:44.085Z,14.67
2023-05-04T07:09:48.327Z,14.77
2023-05-04T07:10:49.942Z,14.83
2023-05-04T07:11:51.693Z,14.91
2023-05-04T07:12:53.332Z,15.00
2023-05-04T07:13:55.057Z,15.07
2023-05-04T07:14:56.903Z,15.08
2023-05-04T07:15:58.551Z,15.17
2023-05-04T07:17:00.931Z,15.21
2023-05-04T07:18:03.001Z,15.30
2023-05-04T07:19:04.663Z,15.42
2023-05-04T07:20:07.397Z,15.43
2023-05-04T07:21:26.909Z,15.49
2023-05-04T07:22:29.795Z,15.44
2023-05-04T07:23:31.391Z,15.48
2023-05-04T07:24:33.310Z,15.43
2023-05-04T07:25:35.179Z,15.39
2023-05-04T07:26:36.706Z,15.28
2023-05-04T07:27:38.273Z,15.25
2023-05-04T07:28:43.616Z,15.25
2023-05-04T07:29:45.625Z,15.24
2023-05-04T07:30:47.147Z,15.35
2023-05-04T07:31:48.765Z,15.43
2023-05-04T07:32:50.316Z,15.57
2023-05-04T07:33:51.825Z,15.64
2023-05-04T07:34:53.781Z,15.66
2023-05-04T07:35:58.905Z,15.53
2023-05-04T07:37:00.470Z,15.60
2023-05-04T07:38:02.825Z,15.66
2023-05-04T07:39:04.667Z,15.72
2023-05-04T07:40:07.764Z,15.79
2023-05-04T07:41:10.321Z,15.77
2023-05-04T07:42:12.044Z,15.79
2023-05-04T07:43:13.580Z,15.90
2023-05-04T07:44:15.422Z,16.02
2023-05-04T07:45:17.575Z,16.08
2023-05-04T07:46:19.561Z,16.12
2023-05-04T07:47:21.119Z,16.19
2023-05-04T07:48:24.076Z,16.19
2023-05-04T07:49:28.653Z,16.23
2023-05-04T07:50:30.339Z,16.32
2023-05-04T07:51:32.084Z,16.39
2023-05-04T07:52:36.818Z,16.49
2023-05-04T07:53:38.317Z,16.59
2023-05-04T07:54:40.601Z,16.73
2023-05-04T07:55:42.165Z,16.85
2023-05-04T07:56:44.446Z,16.95
2023-05-04T07:57:46.053Z,17.01
2023-05-04T07:58:48.216Z,17.10
2023-05-04T07:59:53.861Z,17.20
2023-05-04T08:00:55.603Z,17.19
2023-05-04T08:01:57.302Z,17.26
2023-05-04T08:02:58.969Z,17.30
2023-05-04T08:04:00.643Z,17.28
2023-05-04T08:05:02.148Z,17.27
2023-05-04T08:06:03.808Z,17.34
2023-05-04T08:07:05.376Z,17.46
2023-05-04T08:08:08.885Z,17.50
2023-05-04T08:09:10.430Z,17.58
2023-05-04T08:10:12.014Z,17.46
2023-05-04T08:11:20.673Z,17.52
2023-05-04T08:12:24.084Z,17.56
2023-05-04T08:13:25.569Z,17.57
2023-05-04T08:14:27.232Z,17.58
2023-05-04T08:15:29.425Z,17.62
2023-05-04T08:16:32.387Z,17.70
2023-05-04T08:17:35.022Z,17.81
2023-05-04T08:18:37.196Z,17.92
2023-05-04T08:19:38.730Z,17.91
2023-05-04T08:20:40.302Z,17.98
2023-05-04T08:21:41.976Z,18.12
2023-05-04T08:22:43.496Z,18.24
2023-05-04T08:23:45.315Z,18.36
2023-05-04T08:24:50.163Z,18.32
2023-05-04T08:25:52.500Z,18.35
2023-05-04T08:27:04.164Z,18.42
2023-05-04T08:28:09.526Z,18.54
2023-05-04T08:29:11.091Z,18.63
2023-05-04T08:30:13.172Z,18.72
2023-05-04T08:31:14.915Z,18.85
2023-05-04T08:32:17.532Z,18.94
2023-05-04T08:33:19.020Z,19.05
2023-05-04T08:34:20.601Z,19.10
2023-05-04T08:35:26.105Z,19.15
2023-05-04T08:36:27.720Z,19.17
2023-05-04T08:37:29.562Z,19.11
2023-05-04T08:38:31.289Z,19.18
2023-05-04T08:39:32.943Z,19.24
2023-05-04T08:40:34.565Z,19.30
2023-05-04T08:41:40.845Z,19.38
2023-05-04T08:42:44.322Z,19.38
2023-05-04T08:43:46.803Z,19.33
2023-05-04T08:44:48.340Z,19.25
2023-05-04T08:45:52.916Z,19.25
2023-05-04T08:46:55.852Z,19.31
2023-05-04T08:47:57.359Z,19.34
2023-05-04T08:48:59.053Z,19.35
2023-05-04T08:50:01.155Z,19.36
2023-05-04T08:51:04.533Z,19.37
2023-05-04T08:52:08.579Z,19.34
2023-05-04T08:53:13.823Z,19.23
2023-05-04T08:54:16.323Z,19.14
2023-05-04T08:55:18.724Z,18.90
2023-05-04T08:56:22.905Z,18.88
2023-05-04T08:57:25.478Z,18.90
2023-05-04T08:58:28.335Z,18.87
2023-05-04T08:59:31.644Z,18.91
2023-05-04T09:00:33.720Z,18.96
2023-05-04T09:01:38.170Z,19.01
2023-05-04T09:02:40.014Z,19.06
2023-05-04T09:03:43.084Z,19.08
2023-05-04T09:04:45.164Z,19.11
2023-05-04T09:05:47.559Z,19.10
2023-05-04T09:06:49.523Z,19.11
2023-05-04T09:07:52.837Z,19.04
2023-05-04T09:08:54.448Z,19.00
2023-05-04T09:09:57.129Z,18.88
2023-05-04T09:10:59.223Z,18.85
2023-05-04T09:12:00.748Z,18.87
2023-05-04T09:13:02.987Z,18.90
2023-05-04T09:14:04.623Z,18.89
2023-05-04T09:15:17.543Z,18.80
2023-05-04T09:16:20.196Z,18.77
2023-05-04T09:17:26.011Z,18.75
2023-05-04T09:18:41.107Z,18.73
2023-05-04T09:19:44.299Z,18.60
2023-05-04T09:20:47.269Z,18.61
2023-05-04T09:21:51.395Z,18.65
2023-05-04T09:23:10.054Z,18.70
2023-05-04T09:24:12.702Z,18.58
2023-05-04T09:25:14.322Z,18.64
2023-05-04T09:26:27.725Z,18.72
2023-05-04T09:27:29.248Z,18.75
2023-05-04T09:28:39.568Z,18.72
2023-05-04T09:29:42.324Z,18.66
2023-05-04T09:30:45.004Z,18.70
2023-05-04T09:31:51.117Z,18.70
2023-05-04T09:32:53.113Z,18.64
2023-05-04T09:33:54.875Z,18.66
2023-05-04T09:34:56.731Z,18.67
2023-05-04T09:36:16.402Z,18.72
2023-05-04T09:37:20.961Z,18.76
2023-05-04T09:38:27.551Z,18.78
2023-05-04T09:39:30.445Z,18.78
2023-05-04T09:40:33.048Z,18.71
2023-05-04T09:41:34.843Z,18.71
2023-05-04T09:42:37.208Z,18.67
2023-05-04T09:43:40.412Z,18.61
2023-05-04T09:44:42.341Z,18.63
2023-05-04T09:45:45.500Z,18.69
2023-05-04T09:46:58.192Z,18.75
2023-05-04T09:48:00.057Z,18.77
2023-05-04T09:49:01.975Z,18.78
2023-05-04T09:50:22.482Z,18.78
2023-05-04T09:51:27.361Z,18.83
2023-05-04T09:52:32.007Z,18.81
2023-05-04T09:53:40.137Z,18.76
2023-05-04T09:54:45.174Z,18.78
2023-05-04T09:55:48.043Z,18.81
2023-05-04T09:56:51.231Z,18.83
2023-05-04T09:57:53.236Z,18.86
2023-05-04T09:58:59.128Z,18.88
2023-05-04T10:00:01.611Z,18.89
2023-05-04T10:01:03.740Z,18.90
2023-05-04T10:02:18.876Z,18.94
2023-05-04T10:03:24.283Z,18.95
2023-05-04T10:04:26.148Z,19.03
2023-05-04T10:05:28.603Z,19.03
2023-05-04T10:06:31.330Z,19.06
2023-05-04T10:07:33.631Z,19.14
2023-05-04T10:08:36.159Z,19.17
2023-05-04T10:09:39.274Z,19.10
2023-05-04T10:10:40.922Z,19.17
2023-05-04T10:11:43.251Z,19.25
2023-05-04T10:12:45.882Z,19.29
2023-05-04T10:13:50.873Z,19.33
2023-05-04T10:14:53.438Z,19.35
2023-05-04T10:16:38.273Z,19.41
2023-05-04T10:17:46.322Z,19.51
2023-05-04T10:19:29.450Z,19.50
2023-05-04T10:20:44.656Z,19.58
2023-05-04T10:22:18.462Z,19.73
2023-05-04T10:23:42.539Z,19.73
2023-05-04T10:25:19.710Z,19.78
2023-05-04T10:26:50.302Z,19.72
2023-05-04T10:28:06.019Z,19.87
2023-05-04T10:29:23.485Z,19.95
2023-05-04T10:30:25.591Z,19.99
2023-05-04T10:31:37.690Z,20.03
2023-05-04T10:32:40.516Z,20.12
2023-05-04T10:33:42.675Z,20.18
2023-05-04T10:34:44.357Z,20.20
2023-05-04T10:35:53.214Z,20.25
2023-05-04T10:36:55.540Z,20.31
2023-05-04T10:37:57.399Z,20.31
2023-05-04T10:38:58.942Z,20.41
2023-05-04T10:40:00.619Z,20.49
2023-05-04T10:41:14.120Z,20.52
2023-05-04T10:42:15.658Z,20.60
2023-05-04T10:43:28.954Z,20.73
2023-05-04T10:44:33.066Z,20.90
2023-05-04T10:45:41.912Z,21.00
2023-05-04T10:46:43.844Z,21.04
2023-05-04T10:47:45.388Z,20.89
2023-05-04T10:48:47.514Z,20.99
2023-05-04T10:49:49.170Z,21.13
2023-05-04T10:50:50.974Z,21.20
2023-05-04T10:52:16.662Z,21.22
2023-05-04T10:53:18.842Z,21.23
2023-05-04T10:54:20.419Z,21.21
2023-05-04T10:55:22.518Z,21.25
2023-05-04T10:56:24.986Z,21.30
2023-05-04T10:57:28.778Z,21.36
2023-05-04T10:58:30.373Z,21.39
2023-05-04T10:59:35.398Z,21.37
2023-05-04T11:00:39.310Z,21.29
2023-05-04T11:01:47.456Z,21.36
2023-05-04T11:02:50.400Z,21.44
2023-05-04T11:03:53.083Z,21.49
2023-05-04T11:05:04.272Z,21.52
2023-05-04T11:06:15.764Z,21.49
2023-05-04T11:07:17.656Z,21.49
2023-05-04T11:08:19.113Z,21.54
2023-05-04T11:09:20.719Z,21.55
2023-05-04T11:10:26.774Z,21.52
2023-05-04T11:11:28.725Z,21.52
2023-05-04T11:12:32.500Z,21.55
2023-05-04T11:13:35.455Z,21.56
2023-05-04T11:14:41.355Z,21.51
2023-05-04T11:15:51.988Z,21.40
2023-05-04T11:17:07.386Z,21.08
2023-05-04T11:18:15.399Z,21.08
2023-05-04T11:19:17.951Z,21.11
2023-05-04T11:20:26.705Z,21.16
2023-05-04T11:21:28.201Z,21.16
2023-05-04T11:22:32.378Z,21.18
2023-05-04T11:23:34.123Z,21.22
2023-05-04T11:24:43.069Z,21.28
2023-05-04T11:25:44.641Z,21.22
2023-05-04T11:26:48.893Z,21.24
2023-05-04T11:27:50.898Z,21.25
2023-05-04T11:28:52.832Z,21.28
2023-05-04T11:29:58.279Z,21.30
2023-05-04T11:30:59.965Z,21.33
2023-05-04T11:32:01.829Z,21.33
2023-05-04T11:33:12.401Z,21.38
2023-05-04T11:34:20.171Z,21.46
2023-05-04T11:35:25.120Z,21.48
2023-05-04T11:36:27.277Z,21.45
2023-05-04T11:37:29.505Z,21.43
2023-05-04T11:38:31.557Z,21.37
2023-05-04T11:39:33.643Z,21.43
2023-05-04T11:40:35.983Z,21.47
2023-05-04T11:41:37.741Z,21.45
2023-05-04T11:42:40.608Z,21.46
2023-05-04T11:43:43.335Z,21.46
2023-05-04T11:44:45.349Z,21.38
2023-05-04T11:45:48.548Z,21.33
2023-05-04T11:46:51.862Z,21.28
2023-05-04T11:47:56.494Z,21.26
2023-05-04T11:48:59.592Z,21.19
2023-05-04T11:50:01.382Z,21.14
2023-05-04T11:51:04.413Z,21.23
2023-05-04T11:52:09.843Z,21.34
2023-05-04T11:53:13.854Z,21.44
2023-05-04T11:54:22.256Z,21.52
2023-05-04T11:55:27.996Z,21.59
2023-05-04T11:56:29.517Z,21.60
2023-05-04T11:57:31.827Z,21.66
2023-05-04T11:58:33.352Z,21.72
2023-05-04T11:59:35.359Z,21.75
2023-05-04T12:00:44.316Z,21.73
2023-05-04T12:01:45.831Z,21.82
2023-05-04T12:02:47.706Z,21.92
2023-05-04T12:03:54.902Z,21.98
2023-05-04T12:04:56.564Z,22.05
2023-05-04T12:05:59.079Z,22.12
2023-05-04T12:07:06.881Z,22.21
2023-05-04T12:08:12.385Z,22.26
2023-05-04T12:09:16.186Z,22.37
2023-05-04T12:10:36.418Z,22.47
2023-05-04T12:11:40.583Z,22.48
2023-05-04T12:12:44.120Z,22.39
2023-05-04T12:13:48.557Z,22.37
2023-05-04T12:14:59.251Z,22.43
2023-05-04T12:16:11.763Z,22.58
2023-05-04T12:17:13.317Z,22.57
2023-05-04T12:18:29.401Z,22.61
2023-05-04T12:19:31.389Z,22.62
2023-05-04T12:20:33.510Z,22.76
2023-05-04T12:21:36.157Z,22.85
2023-05-04T12:22:37.780Z,22.91
2023-05-04T12:23:40.561Z,22.95
2023-05-04T12:24:42.001Z,23.04
2023-05-04T12:25:54.712Z,23.12
2023-05-04T12:26:59.151Z,23.19
2023-05-04T12:28:00.742Z,23.25
2023-05-04T12:29:02.405Z,23.40
2023-05-04T12:30:04.667Z,23.45
2023-05-04T12:31:09.394Z,23.50
2023-05-04T12:32:11.533Z,23.67
2023-05-04T12:33:13.028Z,23.81
2023-05-04T12:34:14.619Z,23.92
2023-05-04T12:35:17.019Z,24.06
2023-05-04T12:36:18.927Z,24.09
2023-05-04T12:37:22.685Z,24.22
2023-05-04T12:38:26.277Z,24.32
2023-05-04T12:39:32.522Z,24.22
2023-05-04T12:40:34.065Z,24.35
2023-05-04T12:41:35.897Z,24.46
2023-05-04T12:42:42.760Z,24.59
2023-05-04T12:43:44.883Z,24.71
2023-05-04T12:44:49.327Z,24.77
2023-05-04T12:45:51.987Z,24.71
2023-05-04T12:46:56.803Z,24.74
2023-05-04T12:47:58.301Z,24.66
2023-05-04T12:49:00.510Z,24.73
2023-05-04T12:50:05.699Z,24.83
2023-05-04T12:51:07.513Z,24.90
2023-05-04T12:52:19.253Z,24.93
2023-05-04T12:53:32.046Z,24.95
2023-05-04T12:54:36.689Z,25.02
2023-05-04T12:55:41.069Z,25.08
2023-05-04T12:56:42.619Z,24.96
2023-05-04T12:57:48.174Z,24.93
2023-05-04T12:59:03.304Z,24.87
2023-05-04T13:00:10.863Z,24.98
2023-05-04T13:01:15.556Z,24.98
2023-05-04T13:02:19.553Z,24.98
2023-05-04T13:03:46.620Z,25.06
2023-05-04T13:05:07.779Z,25.17
2023-05-04T13:06:13.831Z,25.15
2023-05-04T13:07:17.486Z,25.18
2023-05-04T13:09:11.894Z,25.34
2023-05-04T13:10:13.473Z,25.46
2023-05-04T13:13:35.208Z,25.62
2023-05-04T13:15:38.015Z,25.43
2023-05-04T13:16:42.366Z,25.44
2023-05-04T13:18:22.121Z,25.36
2023-05-04T13:19:23.917Z,25.23
2023-05-04T13:20:30.141Z,25.21
2023-05-04T13:21:32.011Z,25.23
2023-05-04T13:22:33.562Z,25.16
2023-05-04T13:23:35.833Z,25.25
2023-05-04T13:24:39.816Z,25.35
2023-05-04T13:25:47.605Z,25.45
2023-05-04T13:27:52.489Z,25.32
2023-05-04T13:28:54.233Z,25.29
2023-05-04T13:29:55.733Z,25.19
2023-05-04T13:30:58.681Z,25.11
2023-05-04T13:32:05.726Z,25.17
2023-05-04T13:33:24.996Z,25.19
2023-05-04T13:34:30.792Z,25.18
2023-05-04T13:35:33.701Z,25.21
2023-05-04T13:36:37.540Z,25.24
2023-05-04T13:37:39.153Z,25.27
2023-05-04T13:38:40.911Z,25.26
2023-05-04T13:39:42.563Z,25.31
2023-05-04T13:40:44.296Z,25.16
2023-05-04T13:41:45.885Z,24.94
2023-05-04T13:42:48.230Z,24.98
2023-05-04T13:43:50.849Z,24.94
2023-05-04T13:44:55.285Z,24.97
2023-05-04T13:45:59.870Z,24.96
2023-05-04T13:47:04.062Z,24.95
2023-05-04T13:49:24.895Z,24.92
2023-05-04T13:50:26.635Z,24.94
2023-05-04T14:03:00.680Z,24.21
2023-05-04T14:04:02.310Z,24.21
2023-05-04T14:05:04.236Z,24.23